createdAt,value
2016-01-11T00:00:09.543Z,99.79
2016-01-11T00:00:21.028Z,99.69
2016-01-11T00:00:32.496Z,99.99
2016-01-11T00:00:43.968Z,99.99
2016-01-11T00:00:55.468Z,99.99
2016-01-11T00:01:06.953Z,99.99
2016-01-11T00:01:18.421Z,99.88
2016-01-11T00:01:29.921Z,99.98
2016-01-11T00:01:41.409Z,99.69
2016-01-11T00:01:52.893Z,99.32
2016-01-11T00:02:04.237Z,99.51
2016-01-11T00:02:15.752Z,99.6
2016-01-11T00:02:27.143Z,99.32
2016-01-11T00:02:38.550Z,99.69
2016-01-11T00:02:50.003Z,99.32
2016-01-11T00:03:01.472Z,99.51
2016-01-11T00:03:12.941Z,99.6
2016-01-11T00:03:24.394Z,99.6
2016-01-11T00:03:35.863Z,99.6
2016-01-11T00:03:47.336Z,99.79
2016-01-11T00:03:58.789Z,99.79
2016-01-11T00:04:10.257Z,99.88
2016-01-11T00:04:21.726Z,99.69
2016-01-11T00:04:33.179Z,99.6
2016-01-11T00:04:44.682Z,99.79
2016-01-11T00:04:56.151Z,99.6
2016-01-11T00:05:07.620Z,99.88
2016-01-11T00:05:19.089Z,99.6
2016-01-11T00:05:30.542Z,99.99
2016-01-11T00:05:41.997Z,99.99
2016-01-11T00:05:53.466Z,99.99
2016-01-11T00:06:04.966Z,99.6
2016-01-11T00:06:16.450Z,99.88
2016-01-11T00:06:27.919Z,99.6
2016-01-11T00:06:39.389Z,99.69
2016-01-11T00:06:50.858Z,99.79
2016-01-11T00:07:02.343Z,99.79
2016-01-11T00:07:13.843Z,99.98
2016-01-11T00:07:25.343Z,99.88
2016-01-11T00:07:36.843Z,99.69
2016-01-11T00:07:48.346Z,99.79
2016-01-11T00:07:59.830Z,99.79
2016-01-11T00:08:11.330Z,99.69
2016-01-11T00:08:22.799Z,99.6
2016-01-11T00:08:34.127Z,99.79
2016-01-11T00:08:45.614Z,99.79
2016-01-11T00:08:57.083Z,99.69
2016-01-11T00:09:08.552Z,99.69
2016-01-11T00:09:20.020Z,99.88
2016-01-11T00:09:31.474Z,99.79
2016-01-11T00:09:42.944Z,99.51
2016-01-11T00:09:54.413Z,99.6
2016-01-11T00:10:05.897Z,99.69
2016-01-11T00:10:16.647Z,99.6
2016-01-11T00:10:28.116Z,99.79
2016-01-11T00:10:38.882Z,99.69
2016-01-11T00:10:50.339Z,99.69
2016-01-11T00:11:01.823Z,99.69
2016-01-11T00:11:13.276Z,99.69
2016-01-11T00:11:24.745Z,99.99
2016-01-11T00:11:36.214Z,99.99
2016-01-11T00:11:47.685Z,99.98
2016-01-11T00:11:59.153Z,99.99
2016-01-11T00:12:10.638Z,99.99
2016-01-11T00:12:22.107Z,99.98
2016-01-11T00:12:33.575Z,99.88
2016-01-11T00:12:45.063Z,99.99
2016-01-11T00:12:56.531Z,99.99
2016-01-11T00:13:08.031Z,99.99
2016-01-11T00:13:19.516Z,99.41
2016-01-11T00:13:31.000Z,99.79
2016-01-11T00:13:42.502Z,99.69
2016-01-11T00:13:54.002Z,99.32
2016-01-11T00:14:05.487Z,99.6
2016-01-11T00:14:17.002Z,99.51
2016-01-11T00:14:28.471Z,99.69
2016-01-11T00:14:39.955Z,99.69
2016-01-11T00:14:51.458Z,99.69
2016-01-11T00:15:02.208Z,99.32
2016-01-11T00:15:13.677Z,99.69
2016-01-11T00:15:25.130Z,99.88
2016-01-11T00:15:36.599Z,99.69
2016-01-11T00:15:48.071Z,99.69
2016-01-11T00:15:59.539Z,99.41
2016-01-11T00:16:11.024Z,99.79
2016-01-11T00:16:22.493Z,99.69
2016-01-11T00:16:33.946Z,99.99
2016-01-11T00:16:45.417Z,99.6
2016-01-11T00:16:56.871Z,99.99
2016-01-11T00:17:08.339Z,99.79
2016-01-11T00:17:19.808Z,99.88
2016-01-11T00:17:31.261Z,99.79
2016-01-11T00:17:42.746Z,99.79
2016-01-11T00:17:54.216Z,99.22
2016-01-11T00:18:05.685Z,99.6
2016-01-11T00:18:17.154Z,99.6
2016-01-11T00:18:28.623Z,99.69
2016-01-11T00:18:40.091Z,99.88
2016-01-11T00:18:51.563Z,99.69
2016-01-11T00:19:03.047Z,99.69
2016-01-11T00:19:14.547Z,99.88
2016-01-11T00:19:25.313Z,99.69
2016-01-11T00:19:36.797Z,99.32
2016-01-11T00:19:48.285Z,99.69
2016-01-11T00:19:59.769Z,99.51
2016-01-11T00:20:11.254Z,99.51
2016-01-11T00:20:22.738Z,99.69
2016-01-11T00:20:34.222Z,99.69
2016-01-11T00:20:45.722Z,99.41
2016-01-11T00:20:57.209Z,99.6
2016-01-11T00:21:08.709Z,99.69
2016-01-11T00:21:20.177Z,99.51
2016-01-11T00:21:30.927Z,99.6
2016-01-11T00:21:42.381Z,99.6
2016-01-11T00:21:53.852Z,99.51
2016-01-11T00:22:05.321Z,99.51
2016-01-11T00:22:16.774Z,99.6
2016-01-11T00:22:28.227Z,99.32
2016-01-11T00:22:39.696Z,99.51
2016-01-11T00:22:51.215Z,99.69
2016-01-11T00:23:02.683Z,99.6
2016-01-11T00:23:14.152Z,99.32
2016-01-11T00:23:25.605Z,99.41
2016-01-11T00:23:37.074Z,99.41
2016-01-11T00:23:48.512Z,99.41
2016-01-11T00:23:59.983Z,99.69
2016-01-11T00:24:11.452Z,99.88
2016-01-11T00:24:22.921Z,99.69
2016-01-11T00:24:34.421Z,99.32
2016-01-11T00:24:45.890Z,99.69
2016-01-11T00:24:57.361Z,99.69
2016-01-11T00:25:08.830Z,99.32
2016-01-11T00:25:20.283Z,99.69
2016-01-11T00:25:31.768Z,99.98
2016-01-11T00:25:43.236Z,99.99
2016-01-11T00:25:54.723Z,99.6
2016-01-11T00:26:06.223Z,99.22
2016-01-11T00:26:17.707Z,99.41
2016-01-11T00:26:29.207Z,99.03
2016-01-11T00:26:40.691Z,99.32
2016-01-11T00:26:52.178Z,99.22
2016-01-11T00:27:03.678Z,99.03
2016-01-11T00:27:15.147Z,99.41
2016-01-11T00:27:26.615Z,99.13
2016-01-11T00:27:38.068Z,99.13
2016-01-11T00:27:49.537Z,98.75
2016-01-11T00:28:01.009Z,98.94
2016-01-11T00:28:12.478Z,99.22
2016-01-11T00:28:23.962Z,99.03
2016-01-11T00:28:35.431Z,98.94
2016-01-11T00:28:46.900Z,99.13
2016-01-11T00:28:58.371Z,99.13
2016-01-11T00:29:09.824Z,99.22
2016-01-11T00:29:21.278Z,99.22
2016-01-11T00:29:32.762Z,99.13
2016-01-11T00:29:44.215Z,99.22
2016-01-11T00:29:55.702Z,99.13
2016-01-11T00:30:07.171Z,99.13
2016-01-11T00:30:18.624Z,99.13
2016-01-11T00:30:29.374Z,99.22
2016-01-11T00:30:40.859Z,99.22
2016-01-11T00:30:52.343Z,99.22
2016-01-11T00:31:03.815Z,99.41
2016-01-11T00:31:15.299Z,99.13
2016-01-11T00:31:26.784Z,98.84
2016-01-11T00:31:38.252Z,98.75
2016-01-11T00:31:49.752Z,98.65
2016-01-11T00:32:01.239Z,98.84
2016-01-11T00:32:12.723Z,98.47
2016-01-11T00:32:24.207Z,98.65
2016-01-11T00:32:35.676Z,98.56
2016-01-11T00:32:47.192Z,98.47
2016-01-11T00:32:58.695Z,98.56
2016-01-11T00:33:10.179Z,98.75
2016-01-11T00:33:21.695Z,98.37
2016-01-11T00:33:33.007Z,98.37
2016-01-11T00:33:44.476Z,98.75
2016-01-11T00:33:55.948Z,98.75
2016-01-11T00:34:07.417Z,98.56
2016-01-11T00:34:18.870Z,98.65
2016-01-11T00:34:30.338Z,98.84
2016-01-11T00:34:41.807Z,98.75
2016-01-11T00:34:53.276Z,98.56
2016-01-11T00:35:04.747Z,98.56
2016-01-11T00:35:16.215Z,98.65
2016-01-11T00:35:27.684Z,98.56
2016-01-11T00:35:39.153Z,98.84
2016-01-11T00:35:50.622Z,98.56
2016-01-11T00:36:02.078Z,98.75
2016-01-11T00:36:13.547Z,98.56
2016-01-11T00:36:25.031Z,98.56
2016-01-11T00:36:36.484Z,98.75
2016-01-11T00:36:47.968Z,98.65
2016-01-11T00:36:59.456Z,98.65
2016-01-11T00:37:10.940Z,98.65
2016-01-11T00:37:22.425Z,98.65
2016-01-11T00:37:33.909Z,98.75
2016-01-11T00:37:45.378Z,98.56
2016-01-11T00:37:56.865Z,98.75
2016-01-11T00:38:08.365Z,98.65
2016-01-11T00:38:19.834Z,97.99
2016-01-11T00:38:31.334Z,97.52
2016-01-11T00:38:42.818Z,97.52
2016-01-11T00:38:54.334Z,97.52
2016-01-11T00:39:05.837Z,97.9
2016-01-11T00:39:17.337Z,97.71
2016-01-11T00:39:28.837Z,97.85
2016-01-11T00:39:40.352Z,97.99
2016-01-11T00:39:51.821Z,97.8
2016-01-11T00:40:03.276Z,97.38
2016-01-11T00:40:14.745Z,97.33
2016-01-11T00:40:26.214Z,97.33
2016-01-11T00:40:37.667Z,97.38
2016-01-11T00:40:49.120Z,97.38
2016-01-11T00:41:00.607Z,97.38
2016-01-11T00:41:12.076Z,97.33
2016-01-11T00:41:23.545Z,97.29
2016-01-11T00:41:35.014Z,97.29
2016-01-11T00:41:46.482Z,97.85
2016-01-11T00:41:58.017Z,97.67
2016-01-11T00:42:09.501Z,97.52
2016-01-11T00:42:20.970Z,97.67
2016-01-11T00:42:32.439Z,97.76
2016-01-11T00:42:43.907Z,97.57
2016-01-11T00:42:55.392Z,97.29
2016-01-11T00:43:06.862Z,97.38
2016-01-11T00:43:18.347Z,97.38
2016-01-11T00:43:29.816Z,97.67
2016-01-11T00:43:41.284Z,97.38
2016-01-11T00:43:52.769Z,97.29
2016-01-11T00:44:04.240Z,97.48
2016-01-11T00:44:15.725Z,97.29
2016-01-11T00:44:27.225Z,96.91
2016-01-11T00:44:38.725Z,97
2016-01-11T00:44:50.209Z,97.1
2016-01-11T00:45:01.711Z,96.72
2016-01-11T00:45:13.196Z,96.63
2016-01-11T00:45:24.696Z,96.34
2016-01-11T00:45:36.196Z,96.53
2016-01-11T00:45:47.664Z,96.63
2016-01-11T00:45:59.137Z,96.25
2016-01-11T00:46:10.606Z,96.06
2016-01-11T00:46:22.059Z,95.87
2016-01-11T00:46:33.528Z,96.25
2016-01-11T00:46:44.996Z,95.87
2016-01-11T00:46:56.465Z,95.97
2016-01-11T00:47:07.936Z,96.06
2016-01-11T00:47:19.389Z,96.06
2016-01-11T00:47:30.842Z,96.06
2016-01-11T00:47:42.295Z,95.87
2016-01-11T00:47:53.780Z,96.06
2016-01-11T00:48:05.267Z,95.97
2016-01-11T00:48:16.751Z,95.78
2016-01-11T00:48:28.236Z,96.06
2016-01-11T00:48:39.705Z,96.06
2016-01-11T00:48:51.189Z,96.34
2016-01-11T00:49:02.504Z,96.72
2016-01-11T00:49:14.004Z,96.63
2016-01-11T00:49:25.489Z,96.34
2016-01-11T00:49:36.989Z,96.44
2016-01-11T00:49:48.489Z,96.44
2016-01-11T00:49:59.991Z,97.1
2016-01-11T00:50:11.491Z,96.72
2016-01-11T00:50:22.975Z,96.81
2016-01-11T00:50:34.460Z,96.72
2016-01-11T00:50:45.944Z,96.81
2016-01-11T00:50:57.413Z,96.91
2016-01-11T00:51:08.884Z,97.1
2016-01-11T00:51:20.369Z,97.1
2016-01-11T00:51:31.822Z,96.81
2016-01-11T00:51:43.291Z,97.1
2016-01-11T00:51:54.759Z,97.1
2016-01-11T00:52:06.230Z,97.29
2016-01-11T00:52:16.996Z,97.19
2016-01-11T00:52:28.465Z,97.29
2016-01-11T00:52:39.933Z,97.38
2016-01-11T00:52:51.386Z,97.19
2016-01-11T00:53:02.858Z,97.19
2016-01-11T00:53:14.343Z,97
2016-01-11T00:53:25.811Z,96.91
2016-01-11T00:53:37.280Z,96.91
2016-01-11T00:53:48.749Z,97
2016-01-11T00:54:00.218Z,97
2016-01-11T00:54:11.689Z,97.48
2016-01-11T00:54:23.142Z,97.67
2016-01-11T00:54:33.908Z,97.61
2016-01-11T00:54:45.377Z,97.57
2016-01-11T00:54:56.861Z,97.67
2016-01-11T00:55:08.349Z,97.38
2016-01-11T00:55:19.833Z,97.67
2016-01-11T00:55:31.317Z,97.38
2016-01-11T00:55:42.802Z,97.29
2016-01-11T00:55:54.286Z,97.38
2016-01-11T00:56:05.772Z,97.38
2016-01-11T00:56:17.257Z,97.67
2016-01-11T00:56:28.741Z,98.14
2016-01-11T00:56:40.226Z,97.9
2016-01-11T00:56:51.726Z,97.95
2016-01-11T00:57:03.179Z,97.76
2016-01-11T00:57:14.635Z,98.04
2016-01-11T00:57:26.088Z,97.95
2016-01-11T00:57:37.541Z,97.95
2016-01-11T00:57:49.010Z,97.67
2016-01-11T00:58:00.463Z,97.38
2016-01-11T00:58:11.935Z,97.48
2016-01-11T00:58:23.403Z,97.8
2016-01-11T00:58:34.857Z,97.52
2016-01-11T00:58:46.341Z,97.95
2016-01-11T00:58:57.825Z,97.99
2016-01-11T00:59:09.313Z,97.99
2016-01-11T00:59:20.766Z,98.04
2016-01-11T00:59:32.235Z,97.99
2016-01-11T00:59:43.703Z,97.99
2016-01-11T00:59:55.156Z,97.99
2016-01-11T01:00:06.627Z,97.99
2016-01-11T01:00:18.112Z,97.8
2016-01-11T01:00:29.596Z,97.71
2016-01-11T01:00:41.080Z,97.99
2016-01-11T01:00:52.549Z,98.09
2016-01-11T01:01:04.033Z,97.9
2016-01-11T01:01:15.521Z,97.99
2016-01-11T01:01:27.021Z,97.52
2016-01-11T01:01:38.505Z,97.9
2016-01-11T01:01:50.005Z,97.71
2016-01-11T01:02:01.505Z,97.99
2016-01-11T01:02:13.008Z,98.09
2016-01-11T01:02:24.461Z,97.99
2016-01-11T01:02:35.930Z,97.99
2016-01-11T01:02:47.368Z,97.9
2016-01-11T01:02:58.836Z,97.8
2016-01-11T01:03:10.308Z,97.33
2016-01-11T01:03:21.777Z,97.52
2016-01-11T01:03:33.386Z,97.9
2016-01-11T01:03:44.839Z,98.09
2016-01-11T01:03:56.308Z,97.71
2016-01-11T01:04:07.779Z,97.52
2016-01-11T01:04:19.248Z,97.14
2016-01-11T01:04:30.716Z,97.33
2016-01-11T01:04:42.169Z,97.14
2016-01-11T01:04:53.638Z,97.43
2016-01-11T01:05:05.091Z,97.24
2016-01-11T01:05:16.562Z,97.43
2016-01-11T01:05:28.031Z,97.24
2016-01-11T01:05:39.515Z,97.43
2016-01-11T01:05:51.000Z,97.43
2016-01-11T01:06:02.468Z,97.14
2016-01-11T01:06:13.957Z,97.24
2016-01-11T01:06:24.738Z,97.33
2016-01-11T01:06:36.207Z,97.24
2016-01-11T01:06:46.988Z,97.29
2016-01-11T01:06:58.472Z,97.05
2016-01-11T01:07:09.974Z,97.1
2016-01-11T01:07:21.459Z,97
2016-01-11T01:07:32.943Z,97
2016-01-11T01:07:44.443Z,97.1
2016-01-11T01:07:55.927Z,97.1
2016-01-11T01:08:07.381Z,97.1
2016-01-11T01:08:18.852Z,97
2016-01-11T01:08:30.321Z,97
2016-01-11T01:08:41.774Z,96.91
2016-01-11T01:08:53.118Z,97.19
2016-01-11T01:09:04.571Z,97.1
2016-01-11T01:09:16.043Z,97
2016-01-11T01:09:27.512Z,97.19
2016-01-11T01:09:38.949Z,97.19
2016-01-11T01:09:50.418Z,97.19
2016-01-11T01:10:01.902Z,97
2016-01-11T01:10:13.357Z,96.72
2016-01-11T01:10:24.951Z,96.91
2016-01-11T01:10:36.420Z,96.72
2016-01-11T01:10:47.889Z,96.72
2016-01-11T01:10:59.357Z,96.91
2016-01-11T01:11:10.860Z,96.63
2016-01-11T01:11:22.313Z,97
2016-01-11T01:11:33.798Z,97.1
2016-01-11T01:11:45.267Z,97.1
2016-01-11T01:11:56.735Z,96.63
2016-01-11T01:12:08.235Z,96.34
2016-01-11T01:12:19.722Z,96.25
2016-01-11T01:12:31.222Z,96.53
2016-01-11T01:12:42.722Z,96.44
2016-01-11T01:12:54.237Z,96.25
2016-01-11T01:13:05.690Z,96.53
2016-01-11T01:13:17.162Z,96.34
2016-01-11T01:13:28.615Z,96.53
2016-01-11T01:13:40.100Z,97.1
2016-01-11T01:13:51.568Z,97
2016-01-11T01:14:03.037Z,96.91
2016-01-11T01:14:14.525Z,96.91
2016-01-11T01:14:25.993Z,97.1
2016-01-11T01:14:37.446Z,96.81
2016-01-11T01:14:48.915Z,97
2016-01-11T01:15:00.368Z,96.72
2016-01-11T01:15:11.840Z,97.1
2016-01-11T01:15:23.293Z,96.91
2016-01-11T01:15:34.778Z,97.1
2016-01-11T01:15:46.246Z,97.19
2016-01-11T01:15:57.715Z,96.81
2016-01-11T01:16:09.184Z,97.19
2016-01-11T01:16:20.656Z,97
2016-01-11T01:16:32.124Z,97
2016-01-11T01:16:43.593Z,96.91
2016-01-11T01:16:55.062Z,96.81
2016-01-11T01:17:06.562Z,96.72
2016-01-11T01:17:18.033Z,96.72
2016-01-11T01:17:29.533Z,97
2016-01-11T01:17:41.017Z,96.91
2016-01-11T01:17:52.517Z,97.29
2016-01-11T01:18:04.017Z,97.48
2016-01-11T01:18:15.504Z,97.19
2016-01-11T01:18:26.973Z,97.19
2016-01-11T01:18:38.442Z,97.29
2016-01-11T01:18:49.895Z,97.29
2016-01-11T01:19:01.348Z,97.05
2016-01-11T01:19:12.820Z,97.14
2016-01-11T01:19:24.289Z,97.19
2016-01-11T01:19:35.773Z,97.19
2016-01-11T01:19:47.242Z,97.19
2016-01-11T01:19:58.695Z,97.14
2016-01-11T01:20:10.164Z,97.19
2016-01-11T01:20:21.634Z,97.29
2016-01-11T01:20:33.087Z,97.33
2016-01-11T01:20:44.541Z,97.33
2016-01-11T01:20:56.009Z,97.33
2016-01-11T01:21:07.494Z,97.14
2016-01-11T01:21:18.981Z,97.14
2016-01-11T01:21:30.465Z,96.95
2016-01-11T01:22:21.208Z,96.86
2016-01-11T01:22:32.676Z,97.05
2016-01-11T01:22:44.176Z,97.43
2016-01-11T01:22:57.739Z,97.71
2016-01-11T01:23:09.286Z,97.24
2016-01-11T01:23:20.773Z,97.33
2016-01-11T01:23:32.273Z,97.33
2016-01-11T01:23:43.758Z,97.99
2016-01-11T01:23:55.211Z,97.9
2016-01-11T01:24:06.742Z,97.8
2016-01-11T01:24:18.197Z,97.8
2016-01-11T01:24:29.650Z,97.71
2016-01-11T01:24:41.119Z,97.33
2016-01-11T01:24:52.572Z,97.52
2016-01-11T01:25:04.025Z,97.14
2016-01-11T01:25:15.481Z,97.05
2016-01-11T01:25:26.950Z,96.95
2016-01-11T01:25:38.419Z,96.95
2016-01-11T01:25:49.903Z,96.95
2016-01-11T01:26:01.372Z,96.86
2016-01-11T01:26:12.888Z,96.86
2016-01-11T01:26:24.359Z,96.95
2016-01-11T01:26:35.828Z,96.95
2016-01-11T01:26:47.297Z,97.05
2016-01-11T01:26:58.781Z,97.14
2016-01-11T01:27:10.234Z,97.52
2016-01-11T01:27:21.721Z,97.61
2016-01-11T01:27:33.189Z,97.61
2016-01-11T01:27:44.689Z,97.61
2016-01-11T01:27:56.189Z,97.61
2016-01-11T01:28:07.674Z,97.61
2016-01-11T01:28:19.177Z,97.61
2016-01-11T01:28:30.677Z,97.33
2016-01-11T01:28:42.130Z,97.33
2016-01-11T01:28:53.599Z,97.14
2016-01-11T01:29:05.052Z,97.05
2016-01-11T01:29:16.523Z,97.14
2016-01-11T01:29:27.976Z,96.95
2016-01-11T01:29:39.444Z,96.95
2016-01-11T01:29:50.898Z,97.14
2016-01-11T01:30:02.351Z,97.1
2016-01-11T01:30:13.819Z,96.34
2016-01-11T01:30:25.291Z,96.34
2016-01-11T01:30:36.760Z,96.63
2016-01-11T01:30:48.229Z,96.44
2016-01-11T01:30:59.666Z,96.48
2016-01-11T01:31:10.432Z,96.53
2016-01-11T01:31:21.904Z,96.44
2016-01-11T01:31:33.388Z,96.44
2016-01-11T01:31:44.872Z,96.34
2016-01-11T01:31:56.185Z,96.53
2016-01-11T01:32:07.669Z,95.87
2016-01-11T01:32:19.141Z,96.15
2016-01-11T01:32:30.610Z,96.63
2016-01-11T01:32:42.110Z,96.34
2016-01-11T01:32:53.594Z,96.44
2016-01-11T01:33:05.078Z,96.25
2016-01-11T01:33:15.875Z,96.44
2016-01-11T01:33:27.377Z,96.44
2016-01-11T01:33:38.893Z,96.53
2016-01-11T01:33:50.377Z,96.34
2016-01-11T01:34:01.846Z,96.06
2016-01-11T01:34:13.346Z,95.87
2016-01-11T01:34:24.819Z,95.97
2016-01-11T01:34:36.272Z,96.06
2016-01-11T01:34:47.756Z,96.34
2016-01-11T01:34:59.069Z,96.53
2016-01-11T01:35:10.522Z,96.53
2016-01-11T01:35:21.993Z,96.44
2016-01-11T01:35:33.446Z,96.25
2016-01-11T01:35:44.915Z,96.44
2016-01-11T01:35:56.383Z,96.25
2016-01-11T01:36:07.883Z,96.25
2016-01-11T01:36:19.352Z,96.53
2016-01-11T01:36:30.808Z,96.44
2016-01-11T01:36:42.293Z,96.44
2016-01-11T01:36:53.761Z,96.34
2016-01-11T01:37:05.230Z,95.87
2016-01-11T01:37:16.714Z,95.97
2016-01-11T01:37:28.186Z,95.87
2016-01-11T01:37:39.655Z,96.15
2016-01-11T01:37:51.124Z,95.97
2016-01-11T01:38:02.592Z,95.4
2016-01-11T01:38:14.077Z,95.68
2016-01-11T01:38:25.563Z,95.5
2016-01-11T01:38:37.063Z,95.59
2016-01-11T01:38:48.548Z,95.78
2016-01-11T01:39:00.048Z,95.4
2016-01-11T01:39:11.548Z,95.97
2016-01-11T01:39:23.019Z,96.34
2016-01-11T01:39:34.519Z,96.25
2016-01-11T01:39:46.019Z,95.68
2016-01-11T01:39:57.472Z,96.15
2016-01-11T01:40:08.957Z,96.06
2016-01-11T01:40:20.426Z,96.34
2016-01-11T01:40:31.882Z,96.34
2016-01-11T01:40:43.350Z,96.44
2016-01-11T01:40:54.804Z,96.63
2016-01-11T01:41:06.288Z,96.34
2016-01-11T01:41:17.741Z,96.25
2016-01-11T01:41:29.227Z,96.34
2016-01-11T01:41:40.696Z,96.63
2016-01-11T01:41:52.165Z,96.44
2016-01-11T01:42:03.477Z,96.63
2016-01-11T01:42:14.946Z,96.44
2016-01-11T01:42:26.418Z,96.63
2016-01-11T01:42:37.887Z,96.63
2016-01-11T01:42:49.340Z,96.44
2016-01-11T01:43:00.824Z,96.53
2016-01-11T01:43:12.293Z,96.53
2016-01-11T01:43:23.765Z,96.53
2016-01-11T01:43:35.249Z,96.44
2016-01-11T01:43:46.718Z,97.1
2016-01-11T01:43:58.218Z,97.1
2016-01-11T01:44:09.718Z,97.1
2016-01-11T01:44:21.202Z,97.1
2016-01-11T01:44:32.689Z,96.44
2016-01-11T01:44:44.173Z,96.34
2016-01-11T01:44:55.673Z,96.53
2016-01-11T01:45:07.157Z,96.34
2016-01-11T01:45:18.657Z,96.44
2016-01-11T01:45:30.176Z,96.63
2016-01-11T01:45:41.645Z,96.44
2016-01-11T01:45:53.098Z,96.53
2016-01-11T01:46:04.551Z,96.25
2016-01-11T01:46:16.020Z,96.34
2016-01-11T01:46:27.476Z,96.53
2016-01-11T01:46:38.945Z,96.44
2016-01-11T01:46:50.413Z,96.53
2016-01-11T01:47:01.882Z,96.53
2016-01-11T01:47:13.351Z,96.25
2016-01-11T01:47:24.806Z,96.63
2016-01-11T01:47:36.275Z,96.44
2016-01-11T01:47:47.759Z,96.25
2016-01-11T01:47:59.228Z,96.25
2016-01-11T01:48:10.697Z,96.34
2016-01-11T01:48:22.150Z,96.44
2016-01-11T01:48:33.637Z,96.63
2016-01-11T01:48:45.121Z,96.44
2016-01-11T01:48:56.590Z,97.1
2016-01-11T01:49:08.059Z,96.63
2016-01-11T01:49:19.543Z,96.34
2016-01-11T01:49:31.015Z,96.34
2016-01-11T01:49:42.515Z,96.34
2016-01-11T01:49:53.999Z,96.25
2016-01-11T01:50:05.484Z,96.34
2016-01-11T01:50:16.968Z,96.44
2016-01-11T01:50:28.470Z,97.1
2016-01-11T01:50:39.970Z,96.53
2016-01-11T01:50:51.455Z,96.91
2016-01-11T01:51:02.955Z,96.72
2016-01-11T01:51:14.408Z,96.81
2016-01-11T01:51:25.879Z,97.1
2016-01-11T01:51:37.364Z,97.1
2016-01-11T01:51:48.817Z,97.29
2016-01-11T01:52:00.286Z,97.19
2016-01-11T01:52:11.739Z,97.29
2016-01-11T01:52:23.208Z,97.29
2016-01-11T01:52:34.664Z,97.29
2016-01-11T01:52:46.132Z,97.29
2016-01-11T01:52:57.601Z,97.19
2016-01-11T01:53:09.117Z,97.29
2016-01-11T01:53:20.586Z,97.1
2016-01-11T01:53:32.041Z,97.1
2016-01-11T01:53:43.509Z,96.72
2016-01-11T01:53:54.978Z,96.91
2016-01-11T01:54:06.447Z,96.91
2016-01-11T01:54:17.916Z,97
2016-01-11T01:54:29.419Z,97.1
2016-01-11T01:54:40.872Z,96.63
2016-01-11T01:54:52.356Z,96.34
2016-01-11T01:55:03.825Z,96.34
2016-01-11T01:55:15.309Z,96.34
2016-01-11T01:55:26.812Z,96.53
2016-01-11T01:55:38.297Z,96.63
2016-01-11T01:55:49.797Z,96.63
2016-01-11T01:56:01.297Z,96.44
2016-01-11T01:56:12.781Z,96.44
2016-01-11T01:56:24.265Z,96.25
2016-01-11T01:56:35.753Z,96.34
2016-01-11T01:56:47.222Z,96.44
2016-01-11T01:56:58.690Z,96.53
2016-01-11T01:57:10.159Z,96.34
2016-01-11T01:57:21.628Z,96.53
2016-01-11T01:57:33.099Z,96.34
2016-01-11T01:57:44.536Z,96.72
2016-01-11T01:57:56.005Z,96.63
2016-01-11T01:58:06.770Z,96.53
2016-01-11T01:58:18.239Z,96.34
2016-01-11T01:58:29.727Z,96.53
2016-01-11T01:58:41.195Z,96.25
2016-01-11T01:58:52.695Z,96.34
2016-01-11T01:59:04.148Z,96.34
2016-01-11T01:59:15.617Z,96.34
2016-01-11T01:59:27.086Z,96.72
2016-01-11T01:59:38.542Z,96.34
2016-01-11T01:59:50.026Z,96.63
2016-01-11T02:00:01.511Z,97
2016-01-11T02:00:12.995Z,96.81
2016-01-11T02:00:24.464Z,97
2016-01-11T02:00:35.950Z,96.72
2016-01-11T02:00:47.450Z,96.91
2016-01-11T02:00:58.935Z,97.29
2016-01-11T02:01:10.435Z,97.19
2016-01-11T02:01:21.919Z,97.1
2016-01-11T02:01:33.406Z,97.19
2016-01-11T02:01:44.922Z,97.38
2016-01-11T02:01:56.391Z,97.29
2016-01-11T02:02:07.891Z,97.19
2016-01-11T02:02:19.360Z,96.91
2016-01-11T02:02:30.831Z,97.19
2016-01-11T02:02:42.300Z,97.19
2016-01-11T02:02:53.769Z,97.76
2016-01-11T02:03:05.222Z,97.29
2016-01-11T02:03:16.691Z,97.48
2016-01-11T02:03:28.159Z,97.67
2016-01-11T02:03:39.631Z,97.67
2016-01-11T02:03:51.100Z,98.14
2016-01-11T02:04:02.584Z,98.33
2016-01-11T02:04:14.037Z,98.04
2016-01-11T02:04:25.506Z,97.99
2016-01-11T02:04:36.961Z,98.04
2016-01-11T02:04:47.711Z,98.04
2016-01-11T02:04:59.196Z,97.95
2016-01-11T02:05:10.680Z,98.04
2016-01-11T02:05:22.164Z,98.33
2016-01-11T02:05:33.636Z,98.14
2016-01-11T02:05:45.089Z,97.85
2016-01-11T02:05:56.574Z,98.14
2016-01-11T02:06:08.058Z,97.61
2016-01-11T02:06:19.542Z,97.8
2016-01-11T02:06:31.027Z,97.85
2016-01-11T02:06:42.499Z,97.76
2016-01-11T02:06:53.999Z,97.85
2016-01-11T02:07:05.467Z,97.8
2016-01-11T02:07:16.952Z,97.61
2016-01-11T02:07:28.467Z,97.99
2016-01-11T02:07:39.939Z,98.28
2016-01-11T02:07:51.408Z,97.99
2016-01-11T02:08:02.877Z,97.99
2016-01-11T02:08:14.330Z,97.71
2016-01-11T02:08:25.783Z,97.9
2016-01-11T02:08:37.269Z,98.37
2016-01-11T02:08:48.722Z,97.61
2016-01-11T02:09:00.191Z,97.52
2016-01-11T02:09:11.675Z,97.52
2016-01-11T02:09:23.144Z,97.61
2016-01-11T02:09:34.632Z,97.33
2016-01-11T02:09:46.100Z,97.71
2016-01-11T02:09:57.553Z,97.43
2016-01-11T02:10:09.022Z,97.52
2016-01-11T02:10:20.491Z,97.99
2016-01-11T02:10:31.944Z,97.99
2016-01-11T02:10:43.447Z,97.99
2016-01-11T02:10:54.916Z,97.99
2016-01-11T02:11:06.385Z,97.99
2016-01-11T02:11:17.869Z,97.9
2016-01-11T02:11:29.322Z,98.65
2016-01-11T02:11:40.824Z,98.84
2016-01-11T02:11:52.308Z,98.75
2016-01-11T02:12:03.793Z,98.47
2016-01-11T02:12:15.277Z,98.75
2016-01-11T02:12:26.777Z,98.18
2016-01-11T02:12:38.280Z,98.18
2016-01-11T02:12:49.765Z,98.56
2016-01-11T02:13:01.296Z,98.56
2016-01-11T02:13:12.765Z,98.56
2016-01-11T02:13:24.218Z,98.65
2016-01-11T02:13:35.689Z,97.9
2016-01-11T02:13:47.143Z,97.9
2016-01-11T02:13:58.611Z,97.99
2016-01-11T02:14:10.080Z,97.99
2016-01-11T02:14:21.549Z,97.99
2016-01-11T02:14:33.018Z,98.09
2016-01-11T02:14:44.488Z,98.09
2016-01-11T02:14:55.957Z,97.9
2016-01-11T02:15:07.410Z,97.61
2016-01-11T02:15:18.879Z,97.9
2016-01-11T02:15:30.348Z,97.52
2016-01-11T02:15:41.819Z,97.99
2016-01-11T02:15:53.288Z,97.61
2016-01-11T02:16:04.741Z,97.99
2016-01-11T02:16:16.226Z,98.09
2016-01-11T02:16:27.694Z,98.09
2016-01-11T02:16:39.182Z,97.99
2016-01-11T02:16:50.666Z,97.99
2016-01-11T02:17:02.135Z,97.52
2016-01-11T02:17:13.619Z,97.9
2016-01-11T02:17:25.119Z,97.52
2016-01-11T02:17:36.591Z,97.99
2016-01-11T02:17:48.075Z,97.71
2016-01-11T02:17:58.857Z,97.99
2016-01-11T02:18:10.325Z,97.8
2016-01-11T02:18:21.794Z,97.8
2016-01-11T02:18:33.263Z,97.71
2016-01-11T02:18:44.718Z,97.8
2016-01-11T02:18:56.187Z,97.71
2016-01-11T02:19:07.671Z,97.9
2016-01-11T02:19:19.140Z,97.71
2016-01-11T02:19:30.609Z,97.99
2016-01-11T02:19:42.080Z,98.09
2016-01-11T02:19:53.518Z,98.09
2016-01-11T02:20:04.987Z,97.71
2016-01-11T02:20:16.455Z,97.52
2016-01-11T02:20:27.924Z,97.43
2016-01-11T02:20:39.412Z,97.9
2016-01-11T02:20:50.880Z,97.8
2016-01-11T02:21:02.349Z,97.8
2016-01-11T02:21:13.818Z,97.99
2016-01-11T02:21:25.302Z,98.65
2016-01-11T02:21:36.771Z,98.65
2016-01-11T02:21:48.258Z,98.28
2016-01-11T02:21:59.727Z,98.47
2016-01-11T02:22:11.211Z,98.56
2016-01-11T02:22:22.711Z,98.47
2016-01-11T02:22:34.211Z,98.28
2016-01-11T02:22:45.698Z,98.47
2016-01-11T02:22:57.198Z,98.56
2016-01-11T02:23:08.667Z,98.47
2016-01-11T02:23:20.120Z,98.47
2016-01-11T02:23:31.588Z,98.75
2016-01-11T02:23:43.059Z,98.75
2016-01-11T02:23:54.528Z,98.84
2016-01-11T02:24:05.981Z,98.65
2016-01-11T02:24:17.450Z,97.99
2016-01-11T02:24:28.919Z,97.99
2016-01-11T02:24:40.390Z,97.9
2016-01-11T02:24:51.843Z,97.99
2016-01-11T02:25:03.328Z,97.52
2016-01-11T02:25:14.765Z,98.09
2016-01-11T02:25:26.234Z,97.43
2016-01-11T02:25:37.703Z,97.43
2016-01-11T02:25:49.175Z,97.43
2016-01-11T02:26:00.659Z,97.61
2016-01-11T02:26:12.143Z,97.61
2016-01-11T02:26:23.628Z,97.61
2016-01-11T02:26:35.096Z,97.43
2016-01-11T02:26:46.568Z,97.43
2016-01-11T02:26:58.037Z,97.9
2016-01-11T02:27:09.521Z,97.71
2016-01-11T02:27:21.021Z,97.8
2016-01-11T02:27:32.521Z,98.09
2016-01-11T02:27:44.009Z,97.8
2016-01-11T02:27:55.493Z,97.52
2016-01-11T02:28:06.993Z,97.33
2016-01-11T02:28:18.477Z,97.8
2016-01-11T02:28:29.977Z,97.9
2016-01-11T02:28:41.479Z,97.99
2016-01-11T02:28:52.948Z,97.9
2016-01-11T02:29:04.417Z,97.9
2016-01-11T02:29:15.870Z,97.8